MV Finola — OULQ2 — position and weather

sailwx.info

Track history (hours):
 
Tides and Currents Weather Stations Pressure Air Temp Water Temp Dewpoint Dewpoint Depression Visibility Wind Speed Wind Dir Waves Ship Positions

MV Finola

Last reported at 2017-Apr-28 11:55 UTC. Time now 2017-Apr-30 12:58 UTC.
Position S 12°29' E 130°51'.

Length 85 m; draft 3 m.

Type: Cargo ship. MMSI: 219483000.

Date/timePositionNaut miles runAvg speedWind from/ knotsBaromVisibWave heightAir tempDewpointWater temp
2017-Apr-28 11:55S 12°29' E 130°51'2 0.2
2017-Apr-27 23:56S 12°29' E 130°53'  
2017-Apr-20 15:57N 01°15' E 104°01'510.7
2017-Apr-20 15:30N 01°14' E 103°56'3 6.0
2017-Apr-20 15:00N 01°15' E 103°54'2 0.2
2017-Apr-20 07:58N 01°15' E 103°52'0 0.0
2017-Apr-20 05:34N 01°15' E 103°52'0 0.0
2017-Apr-20 04:43N 01°15' E 103°52'0 0.0
2017-Apr-20 04:22N 01°15' E 103°52'0 0.0
2017-Apr-20 03:46N 01°15' E 103°52'0 0.0
2017-Apr-20 03:28N 01°15' E 103°52'0 0.0
2017-Apr-20 02:55N 01°15' E 103°52'0 0.0
2017-Apr-20 02:25N 01°15' E 103°52'0 0.0
2017-Apr-20 01:55N 01°15' E 103°52'0 0.0
2017-Apr-20 01:25N 01°15' E 103°52'0 0.0
2017-Apr-20 00:54N 01°15' E 103°52'1 1.5
2017-Apr-20 00:30N 01°15' E 103°53'3 5.6
2017-Apr-20 00:00N 01°14' E 103°55'5 9.7
2017-Apr-19 23:29N 01°15' E 104°00'  
Track history (hours):
 
Tides and Currents Weather Stations Pressure Air Temp Water Temp Dewpoint Dewpoint Depression Visibility Wind Speed Wind Dir Waves Ship Positions

MV Finola

Last reported at 2017-Apr-28 11:55 UTC. Time now 2017-Apr-30 12:58 UTC.
Position S 12°29' E 130°51'.

Length 85 m; draft 3 m.

Type: Cargo ship. MMSI: 219483000.

Date/timePositionNaut miles runAvg speedWind from/ knotsBaromVisibWave heightAir tempDewpointWater temp
2017-Apr-28 11:55S 12°29' E 130°51'2 0.2
2017-Apr-27 23:56S 12°29' E 130°53'  
2017-Apr-20 15:57N 01°15' E 104°01'510.7
2017-Apr-20 15:30N 01°14' E 103°56'3 6.0
2017-Apr-20 15:00N 01°15' E 103°54'2 0.2
2017-Apr-20 07:58N 01°15' E 103°52'0 0.0
2017-Apr-20 05:34N 01°15' E 103°52'0 0.0
2017-Apr-20 04:43N 01°15' E 103°52'0 0.0
2017-Apr-20 04:22N 01°15' E 103°52'0 0.0
2017-Apr-20 03:46N 01°15' E 103°52'0 0.0
2017-Apr-20 03:28N 01°15' E 103°52'0 0.0
2017-Apr-20 02:55N 01°15' E 103°52'0 0.0
2017-Apr-20 02:25N 01°15' E 103°52'0 0.0
2017-Apr-20 01:55N 01°15' E 103°52'0 0.0
2017-Apr-20 01:25N 01°15' E 103°52'0 0.0
2017-Apr-20 00:54N 01°15' E 103°52'1 1.5
2017-Apr-20 00:30N 01°15' E 103°53'3 5.6
2017-Apr-20 00:00N 01°14' E 103°55'5 9.7
2017-Apr-19 23:29N 01°15' E 104°00'  

Dump ship's entire track history